Time;durP1;ratioP1;P1;durP2;ratioP2;P2;SDS_P1;SDS_P2;PMS_P1;PMS_P2;Temp;Humidity;BMP_temperature;BMP_pressure;BME280_temperature;BME280_humidity;BME280_pressure;Samples;Min_cycle;Max_cycle;Signal;HPM_P1;HPM_P2
2022/12/08 07:02:29;;;;;;;15.95;7.05;;;;;;;0.95;100.00;100381.73;1677596;82;21406;-38
2022/12/08 07:04:57;;;;;;;13.38;7.95;;;;;;;1.00;100.00;100384.09;1672307;83;21050;-38
2022/12/08 07:07:30;;;;;;;16.30;7.97;;;;;;;1.04;100.00;100387.27;1738913;81;21155;-48
2022/12/08 07:09:58;;;;;;;19.27;7.83;;;;;;;1.07;100.00;100387.78;1732728;81;21128;-39
2022/12/08 07:12:33;;;;;;;15.25;7.58;;;;;;;1.09;100.00;100389.13;1735221;81;21564;-48
2022/12/08 07:15:20;;;;;;;17.65;7.53;;;;;;;1.14;100.00;100391.06;1682206;81;21011;-39
2022/12/08 07:18:12;;;;;;;16.32;8.30;;;;;;;1.22;100.00;100390.97;1744826;81;21027;-47
2022/12/08 07:21:25;;;;;;;16.93;7.95;;;;;;;1.26;100.00;100400.97;1733231;81;21401;-48
2022/12/08 07:24:56;;;;;;;17.45;8.48;;;;;;;1.29;100.00;100401.10;1737183;81;21025;-50
2022/12/08 07:27:55;;;;;;;16.45;7.72;;;;;;;1.37;100.00;100402.67;1720115;81;21075;-40
2022/12/08 07:30:51;;;;;;;15.35;7.78;;;;;;;1.44;100.00;100402.96;1740763;81;21550;-41
2022/12/08 07:33:23;;;;;;;21.15;8.33;;;;;;;1.50;100.00;100406.18;1741186;81;20999;-38
2022/12/08 07:36:38;;;;;;;17.92;8.70;;;;;;;1.54;100.00;100406.36;1731895;81;22047;-39
2022/12/08 07:39:35;;;;;;;16.93;8.70;;;;;;;1.57;100.00;100411.66;1745728;81;21033;-49
2022/12/08 07:42:07;;;;;;;16.62;8.65;;;;;;;1.62;100.00;100410.92;1762737;79;21095;-50
2022/12/08 07:44:34;;;;;;;19.87;8.58;;;;;;;1.67;100.00;100414.15;1786842;78;21271;-48
2022/12/08 07:47:00;;;;;;;17.15;9.10;;;;;;;1.71;100.00;100416.03;1799023;77;21035;-40
2022/12/08 07:49:27;;;;;;;18.75;9.23;;;;;;;1.73;100.00;100414.79;1782565;78;21372;-39
2022/12/08 07:51:54;;;;;;;17.37;9.00;;;;;;;1.73;100.00;100410.92;1785833;78;21095;-49
2022/12/08 07:54:21;;;;;;;17.37;8.93;;;;;;;1.77;100.00;100406.35;1779955;79;21047;-48
2022/12/08 07:56:47;;;;;;;15.72;8.10;;;;;;;1.82;100.00;100405.70;1766085;79;21037;-49
2022/12/08 07:59:14;;;;;;;15.90;8.90;;;;;;;1.89;100.00;100404.62;1779473;78;21001;-48
2022/12/08 10:20:27;;;;;;;30.45;17.35;;;;;;;1.56;100.00;100360.87;1810449;77;25218;-49
2022/12/08 10:23:12;;;;;;;28.12;14.90;;;;;;;1.56;100.00;100369.89;1778931;78;21041;-47
2022/12/08 10:26:11;;;;;;;22.75;14.35;;;;;;;1.58;100.00;100366.11;1762795;79;21117;-41
2022/12/08 10:28:47;;;;;;;28.15;13.78;;;;;;;1.58;100.00;100368.27;1709238;80;21409;-44
2022/12/08 10:31:21;;;;;;;25.48;13.55;;;;;;;1.60;100.00;100376.06;1722493;81;21547;-38
2022/12/08 10:34:00;;;;;;;28.57;14.47;;;;;;;1.65;100.00;100367.20;1729480;80;21799;-39
2022/12/08 10:36:50;;;;;;;25.10;13.22;;;;;;;1.68;100.00;100354.03;1744070;80;21013;-39
2022/12/08 10:39:33;;;;;;;20.90;10.90;;;;;;;1.69;100.00;100354.48;1744871;80;21120;-40
2022/12/08 10:42:17;;;;;;;23.27;13.13;;;;;;;1.67;100.00;100356.11;1741639;80;21035;-50
2022/12/08 10:45:09;;;;;;;21.20;11.85;;;;;;;1.60;100.00;100348.56;1665959;84;21123;-52
2022/12/08 10:47:40;;;;;;;21.05;11.95;;;;;;;1.58;100.00;100354.09;1653488;85;21091;-51
2022/12/08 10:50:23;;;;;;;27.55;13.95;;;;;;;1.59;100.00;100358.83;1660719;84;21445;-40
2022/12/08 10:52:58;;;;;;;;;;;;;;;1.56;100.00;100354.84;1681876;83;21688;-48
2022/12/08 10:55:25;;;;;;;28.80;14.53;;;;;;;1.57;100.00;100365.64;1687004;83;20455;-41
2022/12/08 10:57:51;;;;;;;26.55;13.40;;;;;;;1.61;100.00;100364.91;1687741;83;21391;-48
2022/12/08 11:00:22;;;;;;;24.95;13.30;;;;;;;1.67;100.00;100370.30;1684142;83;21502;-48
2022/12/08 11:02:58;;;;;;;23.55;12.25;;;;;;;1.70;100.00;100373.42;1682145;82;21409;-51
2022/12/08 11:05:30;;;;;;;29.90;14.90;;;;;;;1.74;100.00;100388.16;1670742;83;21055;-42
2022/12/08 11:07:57;;;;;;;26.57;12.85;;;;;;;1.77;100.00;100381.84;1701060;82;21170;-50
2022/12/08 11:10:44;;;;;;;25.90;13.98;;;;;;;1.79;100.00;100382.35;1689732;83;21610;-41
2022/12/08 11:13:28;;;;;;;23.95;12.93;;;;;;;1.79;100.00;100387.92;1710905;82;21028;-47
2022/12/08 11:15:59;;;;;;;25.90;12.88;;;;;;;1.80;100.00;100391.00;1721493;82;21085;-39
2022/12/08 11:18:29;;;;;;;25.90;13.48;;;;;;;1.81;100.00;100388.47;1655724;83;21623;-49
2022/12/08 11:21:03;;;;;;;29.72;14.30;;;;;;;1.86;100.00;100387.35;1719276;79;21815;-49
2022/12/08 11:23:34;;;;;;;27.37;14.45;;;;;;;1.91;100.00;100388.37;1741148;80;21969;-48
2022/12/08 11:26:24;;;;;;;27.25;12.30;;;;;;;1.94;100.00;100387.20;1746269;79;20997;-49
2022/12/08 11:28:51;;;;;;;31.10;14.63;;;;;;;1.97;100.00;100380.88;1762460;79;21013;-49
2022/12/08 11:31:31;;;;;;;27.82;13.50;;;;;;;2.05;100.00;100382.42;1772837;79;20981;-39
2022/12/08 11:33:58;;;;;;;27.82;12.60;;;;;;;2.10;100.00;100383.48;1767957;79;21406;-39
2022/12/08 11:36:28;;;;;;;24.27;12.23;;;;;;;2.15;100.00;100381.06;1764608;79;20966;-39
2022/12/08 11:38:58;;;;;;;27.58;13.83;;;;;;;2.20;100.00;100379.48;1767239;79;21009;-39
2022/12/08 11:41:30;;;;;;;25.68;13.20;;;;;;;2.23;100.00;100378.32;1763412;79;20996;-38
2022/12/08 11:44:39;;;;;;;22.50;12.47;;;;;;;2.25;100.00;100372.37;1762575;79;21430;-39
2022/12/08 11:47:30;;;;;;;31.90;12.80;;;;;;;2.26;100.00;100371.95;1764135;79;21452;-51
2022/12/08 11:50:24;;;;;;;24.40;13.10;;;;;;;2.24;100.00;100365.87;1760141;79;21681;-49
2022/12/08 11:52:51;;;;;;;22.70;11.85;;;;;;;2.24;100.00;100371.03;1676063;83;21423;-49
2022/12/08 11:55:41;;;;;;;21.90;10.65;;;;;;;2.26;100.00;100372.86;1680375;83;21035;-50
2022/12/08 11:58:41;;;;;;;23.18;11.85;;;;;;;2.27;100.00;100375.03;1678752;83;21048;-48
2022/12/08 12:01:20;;;;;;;18.75;10.68;;;;;;;2.22;100.00;100379.16;1651733;83;21558;-49
